Time;durP1;ratioP1;P1;durP2;ratioP2;P2;SDS_P1;SDS_P2;PMS_P1;PMS_P2;Temp;Humidity;BMP_temperature;BMP_pressure;BME280_temperature;BME280_humidity;BME280_pressure;Samples;Min_cycle;Max_cycle;Signal;HPM_P1;HPM_P2
2022/05/21 00:00:28;;;;;;;10.25;2.75;;;11.70;99.90;;;;;;5073656;28;20035;-62
2022/05/21 00:02:54;;;;;;;10.35;3.30;;;11.80;99.90;;;;;;5073091;28;20409;-61
2022/05/21 00:05:23;;;;;;;7.25;3.17;;;11.70;99.90;;;;;;5073027;28;20075;-61
2022/05/21 00:07:48;;;;;;;7.57;2.70;;;11.60;99.90;;;;;;5073332;28;20439;-61
2022/05/21 00:10:16;;;;;;;8.85;3.00;;;11.70;99.90;;;;;;5073155;28;20025;-62
2022/05/21 00:12:43;;;;;;;13.75;3.17;;;11.70;99.90;;;;;;5088589;28;20025;-62
2022/05/21 00:15:11;;;;;;;8.95;3.08;;;11.70;99.90;;;;;;5088647;28;20111;-62
2022/05/21 00:17:37;;;;;;;10.50;2.65;;;11.60;99.90;;;;;;5088658;28;20017;-62
2022/05/21 00:20:03;;;;;;;7.95;2.58;;;11.60;99.90;;;;;;5088227;28;20089;-61
2022/05/21 00:22:29;;;;;;;12.77;3.05;;;11.60;99.90;;;;;;5072693;28;20024;-61
2022/05/21 00:24:55;;;;;;;7.82;2.63;;;11.60;99.90;;;;;;5088477;28;20094;-61
2022/05/21 00:27:21;;;;;;;13.32;3.00;;;11.60;99.90;;;;;;5072966;28;20037;-62
2022/05/21 00:29:46;;;;;;;9.55;3.15;;;11.60;99.90;;;;;;5072670;28;20028;-62
2022/05/21 00:32:12;;;;;;;9.68;2.85;;;11.50;99.90;;;;;;5072746;28;20392;-62
2022/05/21 00:34:38;;;;;;;9.32;2.67;;;11.50;99.90;;;;;;5072318;28;20695;-62
2022/05/21 00:37:04;;;;;;;10.20;2.83;;;11.50;99.90;;;;;;5072354;28;20108;-62
2022/05/21 00:39:29;;;;;;;10.40;3.05;;;11.40;99.90;;;;;;5072270;28;20123;-62
2022/05/21 00:41:55;;;;;;;8.70;3.10;;;11.40;99.90;;;;;;5072573;28;20469;-61
2022/05/21 00:44:21;;;;;;;7.43;2.90;;;11.40;99.90;;;;;;5072358;28;20033;-61
2022/05/21 00:46:49;;;;;;;11.35;3.20;;;11.40;99.90;;;;;;5072218;28;20025;-61
2022/05/21 00:49:26;;;;;;;8.60;3.15;;;11.40;99.90;;;;;;5072295;28;20024;-62
2022/05/21 00:52:07;;;;;;;10.65;2.72;;;11.30;99.90;;;;;;5072159;28;20055;-61
2022/05/21 00:54:45;;;;;;;9.32;3.42;;;11.20;99.90;;;;;;5072116;28;20021;-62
2022/05/21 00:57:16;;;;;;;12.88;3.55;;;11.20;99.90;;;;;;5072004;28;20028;-61
2022/05/21 00:59:47;;;;;;;10.93;3.17;;;11.20;99.90;;;;;;5072230;28;20494;-65
2022/05/21 01:02:26;;;;;;;8.90;3.25;;;11.10;99.90;;;;;;5071996;28;20033;-65
2022/05/21 01:04:56;;;;;;;9.05;3.17;;;11.10;99.90;;;;;;5072040;28;20539;-62
2022/05/21 01:07:21;;;;;;;8.18;3.78;;;11.20;99.90;;;;;;5071011;28;20439;-62
2022/05/21 01:09:52;;;;;;;12.07;3.60;;;11.10;99.90;;;;;;5087226;28;20052;-62
2022/05/21 01:12:20;;;;;;;9.10;3.47;;;11.10;99.90;;;;;;5071763;28;20432;-62
2022/05/21 01:14:49;;;;;;;6.90;2.92;;;11.10;99.90;;;;;;5072074;28;20042;-61
2022/05/21 01:17:17;;;;;;;10.82;3.47;;;11.00;99.90;;;;;;5071571;28;20031;-62
2022/05/21 01:20:06;;;;;;;10.48;3.70;;;11.00;99.90;;;;;;5072179;28;20536;-62
2022/05/21 01:22:43;;;;;;;11.32;3.35;;;11.00;99.90;;;;;;5072066;28;20103;-61
2022/05/21 01:25:10;;;;;;;12.30;3.63;;;10.90;99.90;;;;;;5071614;28;20103;-61
2022/05/21 01:27:37;;;;;;;15.63;4.03;;;10.90;99.90;;;;;;5071707;28;20029;-63
2022/05/21 01:30:06;;;;;;;10.20;3.33;;;11.00;99.90;;;;;;5070419;28;20040;-63
2022/05/21 01:32:31;;;;;;;10.15;3.35;;;11.00;99.90;;;;;;5071699;28;20485;-61
2022/05/21 01:34:57;;;;;;;7.88;3.30;;;10.90;99.90;;;;;;5071625;28;20020;-62
2022/05/21 01:37:23;;;;;;;9.85;3.38;;;10.90;99.90;;;;;;5071829;28;20017;-62
2022/05/21 01:39:49;;;;;;;9.27;3.25;;;10.90;99.90;;;;;;5071834;28;20657;-61
2022/05/21 01:42:14;;;;;;;16.27;3.95;;;10.90;99.90;;;;;;5071413;28;20048;-62
2022/05/21 01:44:40;;;;;;;14.98;3.75;;;11.00;99.90;;;;;;5070355;28;20036;-61
2022/05/21 01:47:10;;;;;;;13.75;3.30;;;11.00;99.90;;;;;;5070232;28;20028;-61
2022/05/21 01:49:37;;;;;;;8.90;3.05;;;11.00;99.90;;;;;;5087150;28;20625;-62
2022/05/21 01:52:04;;;;;;;7.72;3.00;;;11.10;99.90;;;;;;5071611;28;20029;-61
2022/05/21 01:54:31;;;;;;;11.23;3.22;;;11.10;99.90;;;;;;5071688;28;20029;-61
2022/05/21 01:56:57;;;;;;;13.15;3.92;;;11.10;99.90;;;;;;5071668;28;20388;-61
2022/05/21 01:59:23;;;;;;;7.55;2.90;;;11.20;99.90;;;;;;5087335;28;20025;-62
2022/05/21 02:01:49;;;;;;;9.60;3.08;;;11.20;99.90;;;;;;5087169;28;20052;-61
2022/05/21 02:04:16;;;;;;;9.85;3.03;;;11.10;99.90;;;;;;5071519;28;20059;-61
2022/05/21 02:06:42;;;;;;;15.18;3.47;;;11.20;99.90;;;;;;5071416;28;20025;-61
2022/05/21 02:09:08;;;;;;;10.02;3.63;;;11.20;99.90;;;;;;5071312;28;20021;-62
2022/05/21 02:11:34;;;;;;;12.68;3.25;;;11.20;99.90;;;;;;5071620;28;20515;-62
2022/05/21 02:14:00;;;;;;;11.50;3.17;;;11.20;99.90;;;;;;5071154;28;20028;-61
2022/05/21 02:16:26;;;;;;;9.95;3.28;;;11.20;99.90;;;;;;5071442;28;20033;-61
2022/05/21 02:18:51;;;;;;;9.43;3.20;;;11.20;99.90;;;;;;5071437;28;20063;-62
2022/05/21 02:21:18;;;;;;;10.52;2.85;;;11.30;99.90;;;;;;5071851;28;20024;-61
2022/05/21 02:23:44;;;;;;;11.48;3.17;;;11.20;99.90;;;;;;5071576;28;20049;-62
2022/05/21 02:26:10;;;;;;;15.35;3.85;;;11.20;99.90;;;;;;5071394;28;20021;-62
2022/05/21 02:28:35;;;;;;;11.38;3.45;;;11.30;99.90;;;;;;5087800;28;20035;-64
2022/05/21 02:31:02;;;;;;;14.55;3.30;;;11.30;99.90;;;;;;5075094;28;20497;-62
2022/05/21 02:33:28;;;;;;;13.35;3.47;;;11.30;99.90;;;;;;5075320;28;20063;-62
2022/05/21 02:35:54;;;;;;;11.48;3.95;;;11.40;99.90;;;;;;5074742;28;20502;-61
2022/05/21 02:41:13;;;;;;;14.77;4.13;;;11.30;99.90;;;;;;5075246;28;20106;-61
2022/05/21 02:43:40;;;;;;;15.23;4.28;;;11.40;99.90;;;;;;5074950;28;20366;-61
2022/05/21 02:46:06;;;;;;;15.43;4.70;;;11.40;99.90;;;;;;5090327;28;20029;-62
2022/05/21 02:48:32;;;;;;;12.57;3.72;;;11.40;99.90;;;;;;5074821;28;20086;-61
2022/05/21 02:50:58;;;;;;;12.30;4.25;;;11.40;99.90;;;;;;5073391;28;20033;-63
2022/05/21 02:53:24;;;;;;;20.50;3.90;;;11.40;99.90;;;;;;5074529;28;20024;-61
2022/05/21 02:55:52;;;;;;;15.95;4.32;;;11.40;99.90;;;;;;5074671;28;20017;-61
2022/05/21 02:58:19;;;;;;;14.38;4.78;;;11.40;99.90;;;;;;5074272;28;20357;-63
2022/05/21 03:00:45;;;;;;;18.50;4.53;;;11.30;99.90;;;;;;5089928;28;20070;-62
2022/05/21 03:03:11;;;;;;;20.10;4.95;;;11.40;99.90;;;;;;5074031;28;20033;-61
2022/05/21 03:05:37;;;;;;;18.17;4.60;;;11.30;99.90;;;;;;5089684;28;20036;-61
2022/05/21 03:10:52;;;;;;;12.90;4.50;;;11.30;99.90;;;;;;5074161;28;20634;-62
2022/05/21 03:13:18;;;;;;;20.80;4.97;;;11.20;99.90;;;;;;5073817;28;20033;-61
2022/05/21 03:15:44;;;;;;;19.98;5.05;;;11.20;99.90;;;;;;5073884;28;20034;-62
2022/05/21 03:18:11;;;;;;;16.30;4.50;;;11.30;99.90;;;;;;5073876;28;20025;-62
2022/05/21 03:20:38;;;;;;;19.92;5.35;;;11.30;99.90;;;;;;5074257;28;20672;-62
2022/05/21 03:23:04;;;;;;;16.80;5.20;;;11.30;99.90;;;;;;5089458;28;20082;-62
2022/05/21 03:25:30;;;;;;;21.05;5.35;;;11.30;99.90;;;;;;5073970;28;20024;-62
2022/05/21 03:27:56;;;;;;;19.85;5.32;;;11.30;99.90;;;;;;5089280;28;20033;-61
2022/05/21 03:30:25;;;;;;;20.65;6.57;;;11.20;99.90;;;;;;5089746;28;20037;-64
2022/05/21 03:32:51;;;;;;;27.27;5.93;;;11.20;99.90;;;;;;5073752;28;20040;-61
2022/05/21 03:35:17;;;;;;;20.33;6.07;;;11.20;99.90;;;;;;5073776;28;20471;-62
2022/05/21 03:37:44;;;;;;;19.10;5.22;;;11.20;99.90;;;;;;5089246;28;20027;-61
2022/05/21 03:40:13;;;;;;;23.52;6.03;;;11.10;99.90;;;;;;5073079;28;20043;-62
2022/05/21 03:42:39;;;;;;;22.35;6.57;;;11.20;99.90;;;;;;5089347;28;20041;-61
2022/05/21 03:45:06;;;;;;;20.85;5.50;;;11.20;99.90;;;;;;5072158;28;20031;-61
2022/05/21 03:47:32;;;;;;;17.80;5.05;;;11.20;99.90;;;;;;5073328;28;20020;-62
2022/05/21 03:49:58;;;;;;;20.35;5.50;;;11.10;99.90;;;;;;5073272;28;20388;-61
2022/05/21 03:52:23;;;;;;;20.73;5.63;;;11.10;99.90;;;;;;5073523;28;20029;-62
2022/05/21 03:54:49;;;;;;;22.45;5.47;;;11.10;99.90;;;;;;5073485;28;20671;-61
2022/05/21 03:57:16;;;;;;;19.60;5.28;;;11.10;99.90;;;;;;5073093;28;20021;-61
2022/05/21 03:59:43;;;;;;;20.58;6.20;;;11.10;99.90;;;;;;5088938;28;20031;-62
2022/05/21 04:02:09;;;;;;;18.73;5.70;;;11.10;99.90;;;;;;5073208;28;20024;-62
2022/05/21 04:04:35;;;;;;;16.38;5.55;;;11.10;99.90;;;;;;5073322;28;20021;-62
2022/05/21 04:07:01;;;;;;;19.75;6.28;;;11.10;99.90;;;;;;5072780;28;20024;-61
2022/05/21 04:09:28;;;;;;;25.65;5.47;;;11.10;99.90;;;;;;5073046;28;20043;-61
2022/05/21 04:11:57;;;;;;;23.27;5.68;;;11.10;99.90;;;;;;5072904;28;20020;-61
2022/05/21 04:14:27;;;;;;;20.88;5.55;;;11.10;99.90;;;;;;5088417;28;20025;-62
2022/05/21 04:17:04;;;;;;;25.08;5.80;;;11.10;99.90;;;;;;5072738;28;20019;-61
2022/05/21 04:19:30;;;;;;;22.00;5.55;;;11.10;99.90;;;;;;5088499;28;20017;-61
2022/05/21 04:21:57;;;;;;;24.95;6.38;;;11.10;99.90;;;;;;5073174;28;20114;-62
2022/05/21 04:24:23;;;;;;;18.08;5.47;;;11.10;99.90;;;;;;5088100;28;20107;-66
2022/05/21 04:26:49;;;;;;;17.80;5.28;;;11.10;99.90;;;;;;5073015;28;20020;-61
2022/05/21 04:29:16;;;;;;;22.85;6.30;;;11.10;99.90;;;;;;5072720;28;20028;-61
2022/05/21 04:31:42;;;;;;;18.27;5.10;;;11.20;99.90;;;;;;5072509;28;20044;-62
2022/05/21 04:34:08;;;;;;;21.60;5.18;;;11.20;99.90;;;;;;5072601;28;20090;-61
2022/05/21 04:36:34;;;;;;;19.38;5.22;;;11.30;99.90;;;;;;5088168;28;20427;-61
2022/05/21 04:39:00;;;;;;;23.67;5.45;;;11.30;99.90;;;;;;5072414;28;20028;-61
2022/05/21 04:41:26;;;;;;;16.42;4.93;;;11.40;99.90;;;;;;5071140;28;20032;-61
2022/05/21 04:43:53;;;;;;;12.63;5.10;;;11.40;99.90;;;;;;5072417;28;20036;-61
2022/05/21 04:46:20;;;;;;;18.25;5.35;;;11.50;99.90;;;;;;5071432;28;20021;-61
2022/05/21 04:48:47;;;;;;;18.80;5.50;;;11.50;99.90;;;;;;5072285;28;20020;-62
2022/05/21 04:51:13;;;;;;;17.17;5.82;;;11.50;99.90;;;;;;5087431;28;20029;-62
2022/05/21 04:53:39;;;;;;;18.80;5.72;;;11.60;99.90;;;;;;5072688;28;20019;-62
2022/05/21 04:56:06;;;;;;;18.50;6.32;;;11.70;99.90;;;;;;5070805;28;20384;-61
2022/05/21 04:58:32;;;;;;;19.13;5.63;;;11.80;99.90;;;;;;5087586;28;20521;-61
2022/05/21 05:00:58;;;;;;;27.00;5.68;;;11.80;99.90;;;;;;5072225;28;20025;-61
2022/05/21 05:03:23;;;;;;;15.32;4.78;;;11.90;99.90;;;;;;5071895;28;20032;-61
2022/05/21 05:05:50;;;;;;;23.88;6.28;;;11.90;99.90;;;;;;5071396;28;20030;-61
2022/05/21 05:08:18;;;;;;;18.05;5.68;;;11.90;99.90;;;;;;5071413;28;20030;-61
2022/05/21 05:10:44;;;;;;;19.15;5.72;;;11.90;99.90;;;;;;5071601;28;20573;-61
2022/05/21 05:13:10;;;;;;;16.30;5.45;;;11.90;99.90;;;;;;5087412;28;20366;-61
2022/05/21 05:15:36;;;;;;;18.80;5.18;;;12.00;99.90;;;;;;5071326;28;20036;-60
2022/05/21 05:18:08;;;;;;;16.88;5.50;;;12.10;99.90;;;;;;5086923;28;20029;-60
2022/05/21 05:20:35;;;;;;;14.80;4.60;;;12.20;99.90;;;;;;5071477;28;20024;-61
2022/05/21 05:23:01;;;;;;;23.27;5.95;;;12.30;99.90;;;;;;5071429;28;20195;-61
2022/05/21 05:25:27;;;;;;;21.73;5.85;;;12.40;99.90;;;;;;5071436;28;20400;-61
2022/05/21 05:27:53;;;;;;;18.25;5.93;;;12.50;99.90;;;;;;5086890;28;20029;-61
2022/05/21 05:30:20;;;;;;;17.92;5.68;;;12.60;99.90;;;;;;5071123;28;20091;-61
2022/05/21 05:32:47;;;;;;;18.92;5.22;;;12.70;99.90;;;;;;5069705;28;20024;-61
2022/05/21 05:35:14;;;;;;;19.67;4.90;;;12.80;99.90;;;;;;5071200;28;20031;-61
2022/05/21 05:37:40;;;;;;;16.65;4.70;;;12.90;99.90;;;;;;5086816;28;20112;-61
2022/05/21 05:40:08;;;;;;;14.88;4.55;;;13.00;99.90;;;;;;5086650;28;20112;-60
2022/05/21 05:42:35;;;;;;;16.92;4.63;;;13.10;99.90;;;;;;5086559;28;20525;-60
2022/05/21 05:45:01;;;;;;;18.75;4.40;;;13.10;99.90;;;;;;5069677;28;20032;-60
2022/05/21 05:47:27;;;;;;;17.98;4.05;;;13.30;99.90;;;;;;5086505;28;20021;-60
2022/05/21 05:49:53;;;;;;;17.00;4.05;;;13.50;99.90;;;;;;5071063;28;20133;-61
2022/05/21 05:52:19;;;;;;;17.85;4.72;;;13.70;99.90;;;;;;5071463;28;20059;-61
2022/05/21 05:54:46;;;;;;;16.92;3.78;;;13.90;99.90;;;;;;5069522;28;20029;-60
2022/05/21 05:57:12;;;;;;;25.77;4.63;;;14.00;99.90;;;;;;5086428;28;20025;-61
2022/05/21 05:59:51;;;;;;;18.35;4.43;;;14.10;99.90;;;;;;5070988;28;20094;-61
2022/05/21 06:05:02;;;;;;;21.60;4.53;;;14.10;99.90;;;;;;5075276;28;20074;-61
2022/05/21 06:07:28;;;;;;;19.65;4.72;;;14.00;99.90;;;;;;5090485;28;20021;-61
2022/05/21 06:10:01;;;;;;;18.17;4.03;;;14.20;99.90;;;;;;5073611;28;20032;-61
2022/05/21 06:12:27;;;;;;;17.58;4.45;;;14.20;99.90;;;;;;5073559;28;20059;-60
2022/05/21 06:14:53;;;;;;;16.42;4.07;;;14.20;99.90;;;;;;5074587;28;20605;-61
2022/05/21 06:17:19;;;;;;;24.67;4.80;;;14.30;99.90;;;;;;5074661;28;20036;-60
2022/05/21 06:19:44;;;;;;;19.88;4.70;;;14.20;99.90;;;;;;5075041;28;20381;-60
2022/05/21 06:22:10;;;;;;;21.35;4.22;;;14.20;99.90;;;;;;5074624;28;20103;-60
2022/05/21 06:24:36;;;;;;;22.40;4.72;;;14.30;99.90;;;;;;5073288;28;20526;-61
2022/05/21 06:27:06;;;;;;;25.05;4.65;;;14.30;99.90;;;;;;5074731;28;20110;-61
2022/05/21 06:29:31;;;;;;;22.33;4.80;;;14.30;99.90;;;;;;5074612;28;20033;-59
2022/05/21 06:31:57;;;;;;;21.25;4.18;;;14.60;99.90;;;;;;5074504;28;20040;-61
2022/05/21 06:34:24;;;;;;;18.83;4.40;;;14.70;99.90;;;;;;5072895;28;20025;-60
2022/05/21 06:36:50;;;;;;;24.67;5.57;;;14.90;99.90;;;;;;5074547;28;20024;-60
2022/05/21 06:39:15;;;;;;;21.92;4.35;;;15.10;99.90;;;;;;5089885;28;20024;-60
2022/05/21 06:41:41;;;;;;;14.95;3.80;;;15.30;99.90;;;;;;5074656;28;20021;-60
2022/05/21 06:44:09;;;;;;;20.83;4.50;;;15.30;99.90;;;;;;5074212;28;20647;-60
2022/05/21 06:46:35;;;;;;;18.38;4.95;;;15.60;99.90;;;;;;5073975;28;20504;-60
2022/05/21 06:49:01;;;;;;;19.15;5.25;;;15.40;99.90;;;;;;5074116;28;20035;-60
2022/05/21 06:51:26;;;;;;;15.65;3.67;;;15.70;99.90;;;;;;5074240;28;20107;-59
2022/05/21 06:53:52;;;;;;;18.98;3.38;;;16.30;99.90;;;;;;5073861;28;20021;-58
2022/05/21 06:56:18;;;;;;;14.70;3.40;;;16.60;99.90;;;;;;5072705;28;20389;-59
2022/05/21 06:58:45;;;;;;;16.10;3.50;;;16.20;99.90;;;;;;5073757;28;20028;-59
2022/05/21 07:01:11;;;;;;;19.77;4.50;;;16.10;99.90;;;;;;5074129;28;20055;-60
2022/05/21 07:03:37;;;;;;;20.95;4.18;;;15.60;99.90;;;;;;5089935;28;20036;-61
2022/05/21 07:08:48;;;;;;;21.60;4.07;;;15.50;99.90;;;;;;5074261;28;20073;-60
2022/05/21 07:11:14;;;;;;;17.08;3.55;;;15.50;99.90;;;;;;5073880;28;20111;-59
2022/05/21 07:13:39;;;;;;;22.67;4.05;;;15.40;99.90;;;;;;5088973;28;20162;-59
2022/05/21 07:16:06;;;;;;;20.80;4.28;;;15.60;99.90;;;;;;5073176;28;20028;-59
2022/05/21 07:18:31;;;;;;;18.45;3.97;;;15.50;99.90;;;;;;5089314;28;20408;-60
2022/05/21 07:20:57;;;;;;;17.20;3.97;;;15.70;99.90;;;;;;5073697;28;20029;-59
2022/05/21 07:23:25;;;;;;;14.80;3.17;;;15.90;99.90;;;;;;5073518;28;20025;-59
2022/05/21 07:25:52;;;;;;;19.48;4.38;;;16.00;99.90;;;;;;5073580;28;20037;-60
2022/05/21 07:28:18;;;;;;;22.73;4.28;;;16.10;99.90;;;;;;5073367;28;20461;-61
2022/05/21 07:30:45;;;;;;;12.30;3.78;;;16.30;99.90;;;;;;5073249;28;20043;-59
2022/05/21 07:33:17;;;;;;;16.15;4.20;;;17.00;99.90;;;;;;5072963;28;20024;-59
2022/05/21 07:35:44;;;;;;;18.75;4.07;;;17.70;99.90;;;;;;5088643;28;20029;-59
2022/05/21 07:38:11;;;;;;;18.95;3.90;;;17.40;99.90;;;;;;5073444;28;20024;-60
2022/05/21 07:40:39;;;;;;;15.90;3.45;;;17.50;99.90;;;;;;5071847;28;20028;-59
2022/05/21 07:43:16;;;;;;;16.67;3.38;;;18.00;99.90;;;;;;5073044;28;20035;-60
2022/05/21 07:45:43;;;;;;;15.23;3.95;;;17.40;99.90;;;;;;5089064;28;20033;-60
2022/05/21 07:48:11;;;;;;;17.80;3.88;;;17.80;99.90;;;;;;5072939;28;20016;-59
2022/05/21 07:50:40;;;;;;;17.60;3.92;;;18.20;99.90;;;;;;5088750;28;20103;-59
2022/05/21 07:53:13;;;;;;;15.82;4.13;;;18.30;99.90;;;;;;5072940;28;20104;-59
2022/05/21 07:55:43;;;;;;;13.75;3.17;;;18.60;99.90;;;;;;5072857;28;20020;-59
2022/05/21 07:58:09;;;;;;;14.68;3.65;;;18.80;99.90;;;;;;5088354;28;20027;-59
2022/05/21 08:00:35;;;;;;;16.63;3.30;;;18.90;99.90;;;;;;5072897;28;20028;-60
2022/05/21 08:03:01;;;;;;;18.80;4.13;;;19.10;99.90;;;;;;5072731;28;20033;-60
2022/05/21 08:05:27;;;;;;;14.25;3.55;;;19.90;99.90;;;;;;5072596;28;20057;-59
2022/05/21 08:07:52;;;;;;;13.15;3.33;;;20.60;99.90;;;;;;5072833;28;20032;-59
2022/05/21 08:10:22;;;;;;;18.73;3.72;;;20.30;99.90;;;;;;5071390;28;20032;-60
2022/05/21 08:12:49;;;;;;;14.73;3.35;;;19.00;99.90;;;;;;5072527;28;20055;-59
2022/05/21 08:15:18;;;;;;;13.95;3.45;;;18.40;99.90;;;;;;5071375;28;20032;-59
2022/05/21 08:17:44;;;;;;;15.50;3.80;;;18.10;99.90;;;;;;5072343;28;20031;-59
2022/05/21 08:20:11;;;;;;;12.40;3.53;;;17.80;99.90;;;;;;5072703;28;20028;-59
2022/05/21 08:28:07;;;;;;;9.52;2.90;;;19.30;99.90;;;;;;5072571;28;20070;-57
2022/05/21 08:30:33;;;;;;;15.18;3.70;;;19.20;99.90;;;;;;5072222;28;20500;-58
2022/05/21 08:33:04;;;;;;;15.35;3.60;;;18.60;99.90;;;;;;5072074;28;20066;-60
2022/05/21 08:35:30;;;;;;;14.32;3.40;;;18.70;99.90;;;;;;5087557;28;20086;-59
2022/05/21 08:37:56;;;;;;;15.13;3.47;;;19.00;99.90;;;;;;5087792;28;20043;-59
2022/05/21 08:40:23;;;;;;;16.13;3.53;;;19.00;99.90;;;;;;5072320;28;20477;-58
2022/05/21 08:42:55;;;;;;;12.88;3.50;;;19.40;99.90;;;;;;5072148;28;20021;-60
2022/05/21 08:45:47;;;;;;;12.90;3.08;;;19.80;99.90;;;;;;5087482;28;20043;-60
2022/05/21 08:48:16;;;;;;;12.05;2.88;;;19.90;99.90;;;;;;5071925;28;20071;-59
2022/05/21 08:50:47;;;;;;;12.57;2.92;;;20.30;99.90;;;;;;5071913;28;20029;-59
2022/05/21 08:53:17;;;;;;;13.55;3.47;;;20.90;99.90;;;;;;5071898;28;20103;-59
2022/05/21 08:55:45;;;;;;;12.80;3.05;;;21.70;99.90;;;;;;5071950;28;20029;-59
2022/05/21 08:58:50;;;;;;;11.23;2.88;;;21.80;99.90;;;;;;5071585;28;20431;-58
2022/05/21 09:01:22;;;;;;;12.90;2.97;;;21.30;99.90;;;;;;5087259;28;20025;-59
2022/05/21 09:03:50;;;;;;;13.18;3.28;;;21.10;99.90;;;;;;5071786;28;20051;-59
2022/05/21 09:06:19;;;;;;;10.82;3.33;;;20.20;99.90;;;;;;5087104;28;20024;-59
2022/05/21 09:08:47;;;;;;;13.15;3.42;;;20.10;99.90;;;;;;5071577;28;20029;-59
2022/05/21 09:11:17;;;;;;;16.05;3.63;;;20.30;99.90;;;;;;5086971;28;20028;-59
2022/05/21 09:14:02;;;;;;;12.13;3.03;;;20.20;99.90;;;;;;5070149;28;20111;-60
2022/05/21 09:19:18;;;;;;;11.05;2.83;;;21.00;99.90;;;;;;5071397;28;20089;-59
2022/05/21 09:21:46;;;;;;;14.55;2.70;;;21.00;99.90;;;;;;5070371;28;20020;-59
2022/05/21 09:24:42;;;;;;;14.30;3.17;;;21.80;99.90;;;;;;5071216;28;20106;-59
2022/05/21 09:27:32;;;;;;;12.45;2.85;;;21.40;99.90;;;;;;5071207;28;20021;-60
2022/05/21 09:30:13;;;;;;;12.10;3.30;;;21.70;99.90;;;;;;5071200;28;20044;-59
2022/05/21 09:32:40;;;;;;;11.65;3.03;;;23.00;97.70;;;;;;5086801;28;20020;-59
2022/05/21 09:35:17;;;;;;;10.77;2.80;;;22.40;98.90;;;;;;5086609;28;20025;-59
2022/05/21 09:37:44;;;;;;;10.90;2.80;;;22.80;98.30;;;;;;5070621;28;20042;-59
2022/05/21 09:40:37;;;;;;;13.40;3.10;;;21.90;98.50;;;;;;5071036;28;20024;-59
2022/05/21 09:46:24;;;;;;;11.23;2.70;;;21.80;98.40;;;;;;5071538;28;20061;-59
2022/05/21 09:48:51;;;;;;;10.68;3.35;;;22.60;97.30;;;;;;5071179;28;20085;-59
2022/05/21 09:51:29;;;;;;;11.07;2.78;;;22.90;96.70;;;;;;5071242;28;20445;-60
2022/05/21 09:53:55;;;;;;;10.77;2.40;;;21.90;95.90;;;;;;5071052;28;20066;-60
2022/05/21 09:56:33;;;;;;;9.93;2.72;;;21.40;98.00;;;;;;5070930;28;20390;-60
2022/05/21 09:59:17;;;;;;;9.55;2.47;;;21.60;97.50;;;;;;5071114;28;20025;-59
2022/05/21 10:01:45;;;;;;;12.15;3.05;;;21.80;98.40;;;;;;5086403;28;20070;-59
2022/05/21 10:04:13;;;;;;;9.80;2.65;;;22.10;98.10;;;;;;5069444;28;20029;-61
2022/05/21 10:06:43;;;;;;;8.27;2.55;;;22.30;96.80;;;;;;5071167;28;20553;-60
2022/05/21 10:12:08;;;;;;;9.00;2.25;;;22.40;95.20;;;;;;5071524;28;20071;-60
2022/05/21 10:14:43;;;;;;;12.25;2.53;;;22.20;95.50;;;;;;5071050;28;20433;-60
2022/05/21 10:17:18;;;;;;;9.00;2.40;;;21.50;96.40;;;;;;5071216;28;20025;-60
2022/05/21 10:20:12;;;;;;;9.85;2.28;;;21.00;96.70;;;;;;5071676;28;20024;-60
2022/05/21 10:22:58;;;;;;;7.88;2.25;;;21.80;95.10;;;;;;5071353;28;20087;-60
2022/05/21 10:25:31;;;;;;;9.50;2.58;;;21.80;95.10;;;;;;5071152;28;20035;-60
2022/05/21 10:28:26;;;;;;;10.82;2.20;;;22.10;95.40;;;;;;5069883;28;20020;-60
2022/05/21 10:31:07;;;;;;;7.72;2.25;;;22.50;96.50;;;;;;5071360;28;20479;-60
2022/05/21 10:33:52;;;;;;;11.63;2.83;;;23.20;95.20;;;;;;5071191;28;20020;-60
2022/05/21 10:36:59;;;;;;;7.82;2.72;;;23.70;93.60;;;;;;5071273;28;20118;-59
2022/05/21 10:40:07;;;;;;;9.93;2.28;;;23.70;93.30;;;;;;5060711;28;20033;-59
2022/05/21 10:42:45;;;;;;;7.10;2.60;;;24.40;92.80;;;;;;5071181;28;20085;-59
2022/05/21 10:45:19;;;;;;;7.45;2.35;;;24.40;91.40;;;;;;5086675;28;20021;-61
2022/05/21 10:48:02;;;;;;;7.80;2.13;;;24.60;91.50;;;;;;5070729;28;20024;-60
2022/05/21 10:50:37;;;;;;;8.93;2.67;;;24.30;90.20;;;;;;5073441;28;20408;-60
2022/05/21 10:53:11;;;;;;;9.27;2.10;;;24.20;90.30;;;;;;5074680;28;20388;-59
2022/05/21 10:55:55;;;;;;;9.10;2.30;;;24.00;90.70;;;;;;5074454;28;20504;-60
2022/05/21 10:58:45;;;;;;;8.32;2.03;;;23.90;90.70;;;;;;5074488;28;20111;-60
2022/05/21 11:01:15;;;;;;;6.30;2.25;;;23.40;89.50;;;;;;5090193;28;20044;-60
2022/05/21 11:04:00;;;;;;;7.05;2.30;;;22.60;91.80;;;;;;5074349;28;20053;-59
2022/05/21 11:07:02;;;;;;;11.65;2.95;;;22.50;92.10;;;;;;5074202;28;20032;-61
2022/05/21 11:09:46;;;;;;;8.05;2.08;;;22.80;92.50;;;;;;5074428;28;20037;-59
2022/05/21 11:12:15;;;;;;;8.38;2.20;;;22.30;93.70;;;;;;5089795;28;20045;-59
2022/05/21 11:15:03;;;;;;;10.70;2.30;;;24.00;92.00;;;;;;5074475;28;20419;-60
2022/05/21 11:17:53;;;;;;;9.73;2.33;;;24.70;91.10;;;;;;5074207;28;20024;-59
2022/05/21 11:20:23;;;;;;;7.90;2.00;;;25.20;87.90;;;;;;5074619;28;20025;-60
2022/05/21 11:23:15;;;;;;;7.72;2.03;;;25.30;86.60;;;;;;5074163;28;20024;-59
2022/05/21 11:26:10;;;;;;;5.77;1.97;;;25.50;82.70;;;;;;5089580;28;20036;-59
2022/05/21 11:28:49;;;;;;;11.60;2.35;;;24.60;85.80;;;;;;5089169;28;20078;-59
2022/05/21 11:37:21;;;;;;;6.72;1.92;;;24.90;82.70;;;;;;5074150;28;20035;-60
2022/05/21 11:39:48;;;;;;;7.05;2.17;;;23.50;88.20;;;;;;5073867;28;20020;-59
2022/05/21 11:42:17;;;;;;;7.05;1.90;;;23.60;90.00;;;;;;5072139;28;20021;-60
2022/05/21 11:47:22;;;;;;;8.15;2.63;;;23.40;89.00;;;;;;5073751;28;20058;-60
2022/05/21 11:50:13;;;;;;;6.43;2.20;;;23.60;90.20;;;;;;5089050;28;20025;-61
2022/05/21 11:52:38;;;;;;;9.30;2.60;;;24.10;87.70;;;;;;5073519;28;20042;-61
2022/05/21 11:55:20;;;;;;;8.43;2.30;;;23.70;88.20;;;;;;5073403;28;20016;-60
2022/05/21 11:57:56;;;;;;;9.60;2.60;;;22.30;90.70;;;;;;5072205;28;20104;-61
2022/05/21 12:00:22;;;;;;;11.73;2.70;;;22.20;92.10;;;;;;5088810;28;20451;-60
2022/05/21 12:02:53;;;;;;;7.00;2.08;;;22.00;92.70;;;;;;5073649;28;20025;-60
2022/05/21 12:05:34;;;;;;;8.13;2.43;;;23.10;89.00;;;;;;5073178;28;20021;-60
2022/05/21 12:08:15;;;;;;;8.38;2.08;;;23.70;87.20;;;;;;5073132;28;20733;-60
2022/05/21 12:11:18;;;;;;;7.45;1.80;;;24.70;85.80;;;;;;5073311;28;20027;-60
2022/05/21 12:14:01;;;;;;;7.85;2.22;;;25.10;84.00;;;;;;5072735;28;20388;-60
2022/05/21 12:16:29;;;;;;;9.27;2.75;;;25.00;85.30;;;;;;5072518;28;20024;-60
2022/05/21 12:19:03;;;;;;;9.32;2.20;;;24.50;86.00;;;;;;5072237;28;20082;-60
2022/05/21 12:21:29;;;;;;;5.05;1.90;;;23.10;90.00;;;;;;5072108;28;20033;-60
2022/05/21 12:23:58;;;;;;;9.15;2.20;;;23.40;88.70;;;;;;5072622;28;20431;-61
2022/05/21 12:26:31;;;;;;;6.53;2.13;;;23.70;87.20;;;;;;5070887;28;20035;-59
2022/05/21 12:29:07;;;;;;;4.68;1.70;;;24.60;83.00;;;;;;5072742;28;20032;-59
2022/05/21 12:31:48;;;;;;;6.32;1.90;;;25.40;79.00;;;;;;5072417;28;20060;-60
2022/05/21 12:34:20;;;;;;;8.85;1.80;;;26.20;79.90;;;;;;5071918;28;20032;-60
2022/05/21 12:37:14;;;;;;;4.80;1.60;;;26.20;78.80;;;;;;5072641;28;20016;-60
2022/05/21 12:40:07;;;;;;;6.20;1.42;;;25.80;77.20;;;;;;5073381;28;20028;-60
2022/05/21 12:43:07;;;;;;;6.60;1.70;;;24.40;77.90;;;;;;5072613;28;20028;-60
2022/05/21 12:45:47;;;;;;;5.30;2.35;;;23.70;83.50;;;;;;5066611;28;20111;-60
2022/05/21 12:48:29;;;;;;;5.55;1.98;;;23.50;81.40;;;;;;5072194;28;20024;-60
2022/05/21 12:51:00;;;;;;;6.90;1.70;;;23.90;80.10;;;;;;5072626;28;20024;-60
2022/05/21 12:53:37;;;;;;;8.90;2.30;;;25.30;77.30;;;;;;5072136;28;20025;-60
2022/05/21 12:56:15;;;;;;;6.45;1.90;;;25.40;77.90;;;;;;5072313;28;20020;-62
2022/05/21 12:58:41;;;;;;;6.05;1.88;;;25.20;79.20;;;;;;5071636;28;20017;-59
2022/05/21 13:01:07;;;;;;;7.20;2.00;;;25.20;78.50;;;;;;5071939;28;20392;-59
2022/05/21 13:03:35;;;;;;;7.63;2.05;;;25.70;77.90;;;;;;5071463;28;20082;-59
2022/05/21 13:06:05;;;;;;;8.48;2.28;;;25.70;79.50;;;;;;5071798;28;20024;-59
2022/05/21 13:08:33;;;;;;;5.47;1.77;;;25.90;77.60;;;;;;5072038;28;20024;-59
2022/05/21 13:11:06;;;;;;;8.95;2.10;;;26.80;75.60;;;;;;5071462;28;20031;-59
2022/05/21 13:13:39;;;;;;;8.13;1.90;;;25.90;72.90;;;;;;5069526;28;20031;-59
2022/05/21 13:16:13;;;;;;;6.30;2.10;;;25.60;75.70;;;;;;5071479;28;20588;-59
2022/05/21 13:18:54;;;;;;;6.70;2.20;;;26.20;75.30;;;;;;5071316;28;20123;-59
2022/05/21 13:21:49;;;;;;;6.75;1.65;;;26.60;75.30;;;;;;5071578;28;20510;-59
2022/05/21 13:24:29;;;;;;;5.25;1.77;;;25.80;75.50;;;;;;5069905;28;20492;-59
2022/05/21 13:27:18;;;;;;;11.38;2.50;;;25.20;77.80;;;;;;5070042;28;20024;-60
2022/05/21 13:29:45;;;;;;;7.10;2.00;;;25.10;78.50;;;;;;5071270;28;20123;-59
2022/05/21 13:32:24;;;;;;;7.00;1.92;;;25.70;76.40;;;;;;5071175;28;20032;-59